Terminal Aerodrome Forecast
Issued by NWS

Home | Current Version | Previous Version | Text Only | Print | Product List | Glossary On
Versions: 1 2 3 4 5 6 7 8 9 10 11 12 13 14 15
000
FTUS45 KLKN 230542
TAFWMC
TAF
KWMC 230542Z 2306/2406 25007KT P6SM VCSH OVC060
     FM230900 26010KT P6SM -SHSN OVC035
     FM231900 28012G22KT P6SM VCSH BKN060
     FM240000 31006KT P6SM BKN060
      AMD NOT SKED=

USA.gov is the U.S. government's official web portal to all federal, state and local government web resources and services.